Time;durP1;ratioP1;P1;durP2;ratioP2;P2;SDS_P1;SDS_P2;PMS_P1;PMS_P2;Temp;Humidity;BMP_temperature;BMP_pressure;BME280_temperature;BME280_humidity;BME280_pressure;Samples;Min_cycle;Max_cycle;Signal;HPM_P1;HPM_P2
2023/06/02 00:02:13;;;;;;;2.03;0.93;;;;;;;10.38;46.90;102027.84;5082100;28;20210;-68
2023/06/02 00:04:40;;;;;;;2.70;0.80;;;;;;;10.39;47.04;102030.38;5099112;28;20047;-67
2023/06/02 00:07:07;;;;;;;2.72;0.98;;;;;;;10.37;47.42;102037.78;5082547;28;20042;-69
2023/06/02 00:09:41;;;;;;;3.65;1.05;;;;;;;10.28;47.71;102041.47;5105699;28;20032;-67
2023/06/02 00:12:07;;;;;;;1.33;0.60;;;;;;;10.20;47.76;102044.09;5100695;28;20555;-67
2023/06/02 00:14:34;;;;;;;4.38;0.73;;;;;;;10.21;47.83;102024.28;5081840;28;20093;-68
2023/06/02 00:17:03;;;;;;;1.95;0.85;;;;;;;10.41;47.28;102043.66;5081396;28;20039;-67
2023/06/02 00:19:33;;;;;;;2.75;0.82;;;;;;;10.49;47.24;102046.34;5065695;28;20024;-68
2023/06/02 00:22:01;;;;;;;2.20;0.80;;;;;;;10.47;47.74;102040.31;5100447;28;20436;-67
2023/06/02 00:24:27;;;;;;;1.77;0.77;;;;;;;10.32;47.07;102035.56;5081615;28;20024;-68
2023/06/02 00:26:52;;;;;;;1.90;0.70;;;;;;;10.22;47.22;102042.94;5081507;28;20035;-68
2023/06/02 00:29:18;;;;;;;4.00;0.80;;;;;;;10.13;48.19;102049.31;5081685;28;20024;-67
2023/06/02 00:31:43;;;;;;;3.35;0.80;;;;;;;10.18;47.63;102049.66;5081254;28;20565;-67
2023/06/02 00:34:09;;;;;;;3.55;0.68;;;;;;;10.17;47.47;102053.38;5099866;28;20039;-67
2023/06/02 00:36:34;;;;;;;1.70;0.73;;;;;;;10.19;47.44;102050.50;5100381;28;20157;-67
2023/06/02 00:38:59;;;;;;;2.60;0.70;;;;;;;10.20;47.02;102049.47;5099841;28;20043;-67
2023/06/02 00:41:25;;;;;;;1.30;0.73;;;;;;;10.14;47.22;102058.25;5081229;28;20039;-67
2023/06/02 00:43:51;;;;;;;2.40;0.70;;;;;;;10.24;47.53;102050.84;5099129;28;20514;-67
2023/06/02 00:46:17;;;;;;;2.45;0.82;;;;;;;10.11;48.01;102059.41;5081185;28;20043;-67
2023/06/02 00:48:43;;;;;;;2.55;0.90;;;;;;;10.13;48.41;102060.06;5098834;28;20087;-67
2023/06/02 00:51:09;;;;;;;2.85;1.00;;;;;;;10.18;48.46;102065.78;5084159;28;20071;-68
2023/06/02 00:53:36;;;;;;;1.25;0.60;;;;;;;10.22;48.71;102071.69;5085200;28;20024;-68
2023/06/02 00:56:02;;;;;;;1.25;0.77;;;;;;;10.22;48.71;102066.31;5105362;28;20026;-67
2023/06/02 00:58:28;;;;;;;2.40;0.80;;;;;;;10.25;48.60;102071.34;5080878;28;20028;-67
2023/06/02 01:00:54;;;;;;;1.92;1.00;;;;;;;10.22;49.05;102069.84;5063506;28;20028;-67
2023/06/02 01:03:21;;;;;;;2.63;0.90;;;;;;;10.28;49.74;102071.91;5102833;28;20063;-67
2023/06/02 01:05:48;;;;;;;2.80;0.98;;;;;;;10.11;49.64;102059.41;5068634;28;20037;-67
2023/06/02 01:08:16;;;;;;;1.85;0.80;;;;;;;10.10;50.64;102063.09;5099330;28;20028;-68
2023/06/02 01:10:41;;;;;;;2.88;0.70;;;;;;;10.17;50.41;102069.50;5099115;28;20031;-68
2023/06/02 01:13:07;;;;;;;4.70;0.90;;;;;;;10.25;50.25;102069.50;5099584;28;20035;-67
2023/06/02 01:15:33;;;;;;;2.42;1.00;;;;;;;10.21;50.93;102073.53;5099632;28;20028;-67
2023/06/02 01:18:01;;;;;;;2.20;1.10;;;;;;;10.09;50.55;102073.00;5098723;28;20112;-67
2023/06/02 01:20:28;;;;;;;2.92;0.90;;;;;;;10.04;51.19;102075.34;5097326;28;20024;-67
2023/06/02 01:23:17;;;;;;;2.28;1.00;;;;;;;9.97;51.77;102079.72;5099243;28;20031;-68
2023/06/02 01:25:44;;;;;;;4.07;0.90;;;;;;;9.86;51.75;102088.06;5098791;28;20024;-67
2023/06/02 01:28:10;;;;;;;2.45;0.95;;;;;;;9.80;52.27;102091.41;5099065;28;20042;-67
2023/06/02 01:30:36;;;;;;;3.67;0.90;;;;;;;9.77;52.17;102083.69;5099372;28;20024;-67
2023/06/02 01:33:06;;;;;;;4.88;0.80;;;;;;;9.80;52.15;102084.19;5099484;28;20055;-67
2023/06/02 01:35:37;;;;;;;2.35;0.80;;;;;;;9.86;52.36;102088.91;5080766;28;20024;-67
2023/06/02 01:38:03;;;;;;;2.50;0.70;;;;;;;9.83;51.93;102088.38;5099463;28;20031;-67
2023/06/02 01:40:30;;;;;;;4.95;0.73;;;;;;;9.89;51.84;102093.94;5082962;28;20036;-67
2023/06/02 01:42:57;;;;;;;1.13;0.63;;;;;;;9.99;51.51;102096.50;5102036;28;20043;-68
2023/06/02 01:45:24;;;;;;;1.65;0.68;;;;;;;10.02;51.10;102095.34;5077895;28;20024;-67
2023/06/02 01:47:50;;;;;;;4.05;0.60;;;;;;;10.00;51.46;102095.53;5084746;28;20083;-67
2023/06/02 01:50:15;;;;;;;1.98;0.70;;;;;;;10.04;50.85;102096.03;5084309;28;20063;-67
2023/06/02 01:52:41;;;;;;;4.55;0.70;;;;;;;10.01;50.77;102082.91;5103289;28;20028;-68
2023/06/02 01:55:06;;;;;;;3.13;0.95;;;;;;;10.02;50.87;102096.19;5069029;28;20016;-68
2023/06/02 01:57:33;;;;;;;2.20;0.70;;;;;;;9.93;51.15;102094.47;5085944;28;20028;-67
2023/06/02 01:59:58;;;;;;;4.55;0.85;;;;;;;10.01;51.15;102118.72;5078085;28;20604;-67
2023/06/02 02:02:24;;;;;;;2.38;0.90;;;;;;;9.85;51.37;102081.84;5080461;28;20072;-67
2023/06/02 02:04:50;;;;;;;2.55;0.73;;;;;;;10.00;51.01;102105.41;5065253;28;20066;-67
2023/06/02 02:07:19;;;;;;;2.13;0.80;;;;;;;9.97;52.01;102111.16;5100121;28;20032;-67
2023/06/02 02:09:46;;;;;;;1.15;0.80;;;;;;;9.93;51.41;102112.44;5100183;28;20042;-67
2023/06/02 02:12:12;;;;;;;1.67;0.60;;;;;;;9.88;51.80;102119.16;5100290;28;20028;-67
2023/06/02 02:14:37;;;;;;;1.75;0.70;;;;;;;9.88;51.51;102119.16;5081679;28;20286;-67
2023/06/02 02:17:02;;;;;;;2.50;0.68;;;;;;;9.84;51.76;102119.66;5099822;28;20036;-67
2023/06/02 02:19:31;;;;;;;1.17;0.57;;;;;;;9.79;52.06;102121.97;5076583;28;20028;-66
2023/06/02 02:21:57;;;;;;;1.02;0.65;;;;;;;9.71;51.94;102127.34;5098935;28;20035;-67
2023/06/02 02:24:22;;;;;;;1.55;0.75;;;;;;;9.63;52.33;102120.91;5099696;28;20047;-67
2023/06/02 02:26:48;;;;;;;1.92;0.80;;;;;;;9.55;52.64;102122.72;5080870;28;20495;-67
2023/06/02 02:29:13;;;;;;;1.85;0.60;;;;;;;9.53;52.69;102130.91;5105208;28;20035;-67
2023/06/02 02:31:39;;;;;;;1.55;0.70;;;;;;;9.54;52.63;102127.25;5087520;28;20047;-67
2023/06/02 02:34:05;;;;;;;3.38;0.82;;;;;;;9.50;52.69;102141.16;5088818;28;20091;-68
2023/06/02 02:36:32;;;;;;;1.20;0.52;;;;;;;9.45;52.81;102130.03;5099650;28;20024;-67
2023/06/02 02:38:57;;;;;;;3.00;0.70;;;;;;;9.26;53.10;102107.75;5079646;28;20028;-67
2023/06/02 02:41:23;;;;;;;1.48;0.80;;;;;;;9.36;53.13;102129.16;5081070;28;20076;-67
2023/06/02 02:43:49;;;;;;;4.32;1.30;;;;;;;9.87;52.32;102144.38;5099069;28;20031;-67
2023/06/02 02:46:15;;;;;;;1.48;0.60;;;;;;;10.70;50.77;102142.78;5077722;28;20040;-67
2023/06/02 02:48:40;;;;;;;2.40;0.50;;;;;;;11.34;49.00;102145.59;5080668;28;20028;-67
2023/06/02 02:51:06;;;;;;;1.33;0.65;;;;;;;11.85;47.64;102140.72;5064465;28;20479;-67
2023/06/02 02:53:31;;;;;;;2.67;0.93;;;;;;;12.34;46.56;102146.72;5067126;28;20048;-67
2023/06/02 02:55:57;;;;;;;2.78;0.75;;;;;;;12.70;45.78;102148.84;5099685;28;20024;-66
2023/06/02 02:58:24;;;;;;;1.83;0.68;;;;;;;12.96;45.08;102151.19;5099859;28;20028;-68
2023/06/02 03:00:50;;;;;;;1.23;0.70;;;;;;;13.24;44.41;102153.28;5099259;28;20031;-67
2023/06/02 03:03:15;;;;;;;1.23;0.65;;;;;;;13.40;44.43;102163.97;5098992;28;20322;-68
2023/06/02 03:05:41;;;;;;;2.80;0.90;;;;;;;13.65;43.36;102140.22;5080442;28;20039;-67
2023/06/02 03:08:09;;;;;;;1.85;0.95;;;;;;;14.18;42.82;102162.56;5063577;28;20039;-67
2023/06/02 03:10:35;;;;;;;0.80;0.50;;;;;;;14.60;42.24;102160.97;5080753;28;20495;-67
2023/06/02 03:13:01;;;;;;;1.23;0.70;;;;;;;14.93;41.19;102169.44;5098621;28;20032;-67
2023/06/02 03:15:27;;;;;;;3.33;0.60;;;;;;;15.25;40.64;102167.19;5063940;28;20030;-67
2023/06/02 03:17:55;;;;;;;1.73;0.65;;;;;;;15.40;40.66;102156.25;5101971;28;20055;-67
2023/06/02 03:20:21;;;;;;;1.67;0.80;;;;;;;15.72;39.73;102165.66;5102873;28;20394;-67
2023/06/02 03:22:47;;;;;;;2.17;0.57;;;;;;;15.83;39.72;102172.41;5105679;28;20086;-67
2023/06/02 03:25:13;;;;;;;2.58;0.70;;;;;;;15.81;39.79;102177.19;5098323;28;20068;-67
2023/06/02 03:27:39;;;;;;;2.85;0.50;;;;;;;16.03;39.70;102183.38;5097774;28;20543;-68
2023/06/02 03:30:06;;;;;;;1.52;0.65;;;;;;;16.26;39.21;102183.91;5080084;28;20032;-67
2023/06/02 03:32:32;;;;;;;3.95;0.77;;;;;;;16.39;39.20;102172.22;5056812;28;20119;-68
2023/06/02 03:34:57;;;;;;;1.10;0.47;;;;;;;16.49;39.30;102191.72;5078323;28;20496;-67
2023/06/02 03:37:22;;;;;;;1.10;0.60;;;;;;;16.71;38.89;102195.09;5095638;28;20035;-68
2023/06/02 03:39:48;;;;;;;1.00;0.50;;;;;;;16.83;38.40;102185.31;5097150;28;20125;-68
2023/06/02 03:42:13;;;;;;;1.58;0.70;;;;;;;16.89;38.34;102173.63;5100415;28;20107;-68
2023/06/02 03:44:39;;;;;;;3.38;0.50;;;;;;;17.05;38.01;102199.56;5064220;28;20115;-67
2023/06/02 03:47:05;;;;;;;0.90;0.50;;;;;;;17.49;37.46;102208.16;5067387;28;20055;-67
2023/06/02 03:49:31;;;;;;;1.98;0.43;;;;;;;17.49;37.22;102206.25;5060825;28;20071;-67
2023/06/02 03:51:57;;;;;;;2.05;0.50;;;;;;;17.08;37.23;102215.44;5059741;28;20109;-68
2023/06/02 03:54:22;;;;;;;0.98;0.40;;;;;;;17.04;37.36;102219.63;5078047;28;20028;-68
2023/06/02 03:56:49;;;;;;;1.52;0.43;;;;;;;17.24;37.11;102183.47;5056124;28;20024;-68
2023/06/02 03:59:15;;;;;;;1.90;0.57;;;;;;;17.87;36.48;102212.91;5077015;28;20017;-67
2023/06/02 04:01:41;;;;;;;1.88;0.55;;;;;;;17.40;37.09;102223.00;5043326;28;20052;-67
2023/06/02 04:04:11;;;;;;;2.97;0.43;;;;;;;16.96;37.56;102200.81;5077017;28;20032;-67
2023/06/02 04:06:37;;;;;;;1.25;0.40;;;;;;;17.27;37.15;102229.28;5061744;28;20040;-67
2023/06/02 04:09:03;;;;;;;0.95;0.47;;;;;;;17.49;37.04;102221.75;5063622;28;20130;-67
2023/06/02 04:11:28;;;;;;;0.95;0.30;;;;;;;17.14;37.46;102235.56;5067064;28;20051;-67
2023/06/02 04:13:54;;;;;;;1.17;0.50;;;;;;;17.24;37.04;102229.69;5059698;28;20459;-67
2023/06/02 04:16:19;;;;;;;1.75;0.40;;;;;;;17.27;37.04;102216.50;5077808;28;20070;-66
2023/06/02 04:18:45;;;;;;;2.80;0.60;;;;;;;17.50;36.81;102210.66;5042607;28;20024;-68
2023/06/02 04:21:10;;;;;;;1.05;0.52;;;;;;;17.81;36.33;102239.09;5061433;28;20039;-67
2023/06/02 04:23:35;;;;;;;1.95;0.60;;;;;;;17.96;36.18;102241.59;5079283;28;20173;-66
2023/06/02 04:26:03;;;;;;;2.10;0.60;;;;;;;18.08;36.15;102243.47;5075253;28;20028;-67
2023/06/02 04:28:29;;;;;;;0.68;0.50;;;;;;;18.08;35.89;102248.06;5076938;28;20479;-68
2023/06/02 04:30:56;;;;;;;0.88;0.40;;;;;;;18.00;36.03;102242.84;5061560;28;20032;-68
2023/06/02 04:33:23;;;;;;;1.20;0.50;;;;;;;18.00;35.77;102253.75;5075253;28;20024;-68
2023/06/02 04:35:48;;;;;;;1.25;0.60;;;;;;;18.27;35.80;102249.03;5076117;28;20016;-67
2023/06/02 04:38:14;;;;;;;1.00;0.50;;;;;;;18.11;35.57;102231.28;5059725;28;20033;-69
2023/06/02 04:40:39;;;;;;;0.50;0.30;;;;;;;18.84;34.95;102252.81;5077989;28;20020;-68
2023/06/02 04:43:05;;;;;;;0.68;0.40;;;;;;;19.20;34.45;102260.34;5077281;28;20044;-68
2023/06/02 04:45:31;;;;;;;1.13;0.50;;;;;;;18.88;34.98;102251.31;5076839;28;20025;-69
2023/06/02 04:47:57;;;;;;;0.88;0.40;;;;;;;19.18;34.56;102245.22;5057634;28;20368;-69
2023/06/02 04:50:23;;;;;;;1.13;0.38;;;;;;;19.56;34.08;102250.56;5076075;28;20028;-69
2023/06/02 04:52:48;;;;;;;1.98;0.50;;;;;;;19.20;34.31;102265.78;5065919;28;20026;-70
2023/06/02 04:55:14;;;;;;;1.00;0.40;;;;;;;19.37;34.29;102265.22;5060770;28;20651;-68
2023/06/02 04:57:40;;;;;;;0.68;0.40;;;;;;;19.61;34.06;102258.09;5078717;28;20016;-68
2023/06/02 05:00:07;;;;;;;1.85;0.40;;;;;;;19.72;34.15;102268.31;5078289;28;20032;-68
2023/06/02 05:02:33;;;;;;;0.88;0.30;;;;;;;19.80;34.19;102264.44;5101240;28;20070;-68
2023/06/02 05:04:59;;;;;;;0.60;0.30;;;;;;;19.32;34.45;102271.34;5103329;28;20028;-69
2023/06/02 05:07:25;;;;;;;0.85;0.30;;;;;;;18.98;34.94;102261.75;5100923;28;20062;-68
2023/06/02 05:09:50;;;;;;;1.60;0.50;;;;;;;18.01;35.74;102269.03;5097404;28;20032;-69
2023/06/02 05:12:18;;;;;;;1.08;0.63;;;;;;;18.10;35.55;102270.47;5079151;28;20850;-68
2023/06/02 05:14:44;;;;;;;0.77;0.30;;;;;;;18.02;35.48;102271.56;5098002;28;20053;-68
2023/06/02 05:17:09;;;;;;;1.85;0.20;;;;;;;17.74;35.93;102265.47;5088578;28;20044;-68
2023/06/02 05:19:36;;;;;;;0.50;0.30;;;;;;;17.87;36.24;102267.38;5079699;28;20024;-68
2023/06/02 05:22:02;;;;;;;1.65;0.30;;;;;;;17.28;36.64;102271.75;5095392;28;20054;-68
2023/06/02 05:24:30;;;;;;;1.70;0.30;;;;;;;17.04;36.93;102268.59;5079710;28;20051;-67
2023/06/02 05:26:56;;;;;;;0.50;0.28;;;;;;;16.86;37.22;102269.19;5076314;28;20028;-68
2023/06/02 05:29:21;;;;;;;0.45;0.20;;;;;;;16.37;37.82;102255.81;5088685;28;20032;-68
2023/06/02 05:31:47;;;;;;;0.57;0.38;;;;;;;16.31;37.67;102260.16;5060803;28;20035;-68
2023/06/02 05:34:12;;;;;;;0.73;0.40;;;;;;;16.12;38.05;102263.59;5076180;28;20086;-68
2023/06/02 05:36:37;;;;;;;1.83;0.30;;;;;;;15.72;38.67;102269.63;5064446;28;20021;-68
2023/06/02 05:39:03;;;;;;;0.60;0.17;;;;;;;15.78;38.64;102269.88;5057710;28;20050;-68
2023/06/02 05:41:29;;;;;;;0.55;0.30;;;;;;;15.64;38.81;102264.31;5087251;28;20066;-68
2023/06/02 05:43:58;;;;;;;0.55;0.30;;;;;;;15.67;39.31;102261.25;5077671;28;20028;-68
2023/06/02 05:46:23;;;;;;;0.85;0.30;;;;;;;15.83;38.77;102262.81;5050683;28;20036;-68
2023/06/02 05:48:49;;;;;;;0.63;0.20;;;;;;;15.07;40.51;102267.16;5086157;28;20090;-69
2023/06/02 05:51:15;;;;;;;0.80;0.20;;;;;;;14.97;40.49;102284.56;5094865;28;20055;-68
2023/06/02 05:53:40;;;;;;;1.00;0.35;;;;;;;14.61;41.03;102270.19;5079589;28;20030;-68
2023/06/02 05:56:06;;;;;;;0.65;0.20;;;;;;;14.59;41.31;102270.34;5080289;28;20047;-68
2023/06/02 05:58:31;;;;;;;0.70;0.20;;;;;;;14.73;41.06;102268.66;5098857;28;20028;-69
2023/06/02 06:00:57;;;;;;;1.73;0.22;;;;;;;14.47;40.94;102280.81;5081593;28;20089;-67
2023/06/02 06:03:23;;;;;;;0.55;0.20;;;;;;;14.34;41.57;102280.66;5098072;28;20046;-69
2023/06/02 06:05:48;;;;;;;1.00;0.28;;;;;;;14.53;41.11;102273.81;5077790;28;20059;-68
2023/06/02 06:08:14;;;;;;;0.85;0.20;;;;;;;14.52;41.74;102275.69;5060711;28;20024;-69
2023/06/02 06:10:42;;;;;;;0.95;0.30;;;;;;;14.40;41.46;102250.09;5066769;28;20096;-68
2023/06/02 06:13:08;;;;;;;1.60;0.20;;;;;;;14.86;41.14;102274.22;5062238;28;20027;-70
2023/06/02 06:15:34;;;;;;;1.48;0.20;;;;;;;14.91;41.00;102273.66;5079138;28;20032;-68
2023/06/02 06:18:00;;;;;;;0.45;0.20;;;;;;;14.70;40.81;102269.03;5078378;28;20029;-69
2023/06/02 06:20:25;;;;;;;0.98;0.30;;;;;;;14.86;40.97;102278.78;5055818;28;20029;-69
2023/06/02 06:22:50;;;;;;;1.40;0.30;;;;;;;14.80;40.52;102266.84;5043076;28;20102;-68
2023/06/02 06:25:16;;;;;;;1.30;0.20;;;;;;;14.67;40.88;102247.72;5041809;28;20415;-66
2023/06/02 06:27:41;;;;;;;0.75;0.30;;;;;;;15.02;40.57;102290.25;5075414;28;20067;-67
2023/06/02 06:30:07;;;;;;;1.00;0.15;;;;;;;14.84;40.59;102278.16;5076257;28;20028;-68
2023/06/02 06:32:33;;;;;;;0.95;0.20;;;;;;;15.26;40.24;102285.47;5062293;28;20167;-69
2023/06/02 06:34:59;;;;;;;3.10;0.30;;;;;;;15.12;40.19;102289.94;5085583;28;20024;-66
2023/06/02 06:37:27;;;;;;;0.73;0.20;;;;;;;15.30;39.69;102291.34;5083422;28;20032;-67
2023/06/02 06:39:52;;;;;;;2.85;0.25;;;;;;;15.65;39.03;102295.84;5065490;28;20115;-67
2023/06/02 06:42:18;;;;;;;0.43;0.20;;;;;;;15.48;39.57;102279.00;5049932;28;20055;-70
2023/06/02 06:44:43;;;;;;;0.95;0.20;;;;;;;15.45;39.44;102283.97;5063006;28;20050;-68
2023/06/02 06:47:08;;;;;;;2.92;0.20;;;;;;;15.82;38.99;102285.56;5086518;28;20058;-70
2023/06/02 06:49:34;;;;;;;0.40;0.20;;;;;;;15.66;39.06;102286.72;5104518;28;20047;-69
2023/06/02 06:51:59;;;;;;;0.40;0.20;;;;;;;16.03;38.81;102297.41;5049256;28;20020;-69
2023/06/02 06:54:25;;;;;;;0.70;0.20;;;;;;;16.05;38.36;102284.47;5099406;28;20024;-69
2023/06/02 06:56:51;;;;;;;0.57;0.20;;;;;;;15.68;37.82;102291.94;5082235;28;20032;-67
2023/06/02 06:59:16;;;;;;;0.30;0.30;;;;;;;15.85;37.56;102296.00;5099970;28;20050;-67
2023/06/02 07:01:43;;;;;;;0.55;0.20;;;;;;;15.61;37.66;102288.28;5062753;28;20135;-69
2023/06/02 07:04:10;;;;;;;3.80;0.20;;;;;;;15.80;37.65;102268.66;5079646;28;20025;-67
2023/06/02 07:06:36;;;;;;;0.52;0.10;;;;;;;15.94;37.42;102308.41;5078325;28;20084;-67
2023/06/02 07:09:02;;;;;;;0.57;0.20;;;;;;;15.98;36.96;102298.00;5080321;28;20025;-66
2023/06/02 07:11:28;;;;;;;0.43;0.22;;;;;;;15.82;37.44;102273.88;5078339;28;20064;-66
2023/06/02 07:13:53;;;;;;;0.40;0.10;;;;;;;15.82;36.92;102290.97;5080570;28;20021;-67
2023/06/02 07:16:21;;;;;;;0.28;0.10;;;;;;;15.78;36.53;102289.72;5080672;28;20021;-67
2023/06/02 07:18:47;;;;;;;0.90;0.20;;;;;;;15.91;37.13;102297.94;5080046;28;20328;-68
2023/06/02 07:21:12;;;;;;;0.50;0.20;;;;;;;15.78;36.67;102305.16;5078321;28;20094;-68
2023/06/02 07:23:38;;;;;;;0.15;0.10;;;;;;;15.76;36.80;102308.09;5079771;28;20025;-69
2023/06/02 07:26:03;;;;;;;0.43;0.20;;;;;;;15.61;37.29;102318.13;5062181;28;20025;-68
2023/06/02 07:28:28;;;;;;;1.23;0.30;;;;;;;15.95;36.90;102311.97;5078196;28;20025;-69
2023/06/02 07:30:54;;;;;;;0.77;0.20;;;;;;;15.62;37.37;102303.53;5061122;28;20100;-67
2023/06/02 07:33:19;;;;;;;1.13;0.25;;;;;;;15.67;37.18;102318.22;5079347;28;20430;-68
2023/06/02 07:35:46;;;;;;;1.38;0.25;;;;;;;15.89;37.09;102324.47;5079041;28;20016;-68
2023/06/02 07:38:11;;;;;;;0.63;0.20;;;;;;;16.33;36.85;102328.72;5077851;28;20027;-68
2023/06/02 07:40:37;;;;;;;1.08;0.30;;;;;;;16.22;36.38;102307.53;5076156;28;20032;-67
2023/06/02 07:43:02;;;;;;;1.23;0.20;;;;;;;16.66;35.77;102315.31;5072309;28;20036;-67
2023/06/02 07:45:28;;;;;;;0.40;0.20;;;;;;;16.37;36.11;102332.72;5056056;28;20090;-68
2023/06/02 07:47:53;;;;;;;0.38;0.20;;;;;;;16.44;36.65;102333.59;5076394;28;20441;-67
2023/06/02 07:50:19;;;;;;;1.23;0.20;;;;;;;16.31;37.07;102336.22;5077656;28;20033;-68
2023/06/02 07:52:45;;;;;;;0.40;0.10;;;;;;;15.95;36.05;102299.22;5075933;28;20025;-67
2023/06/02 07:55:11;;;;;;;0.52;0.20;;;;;;;16.33;36.17;102345.03;5071329;28;20426;-67
2023/06/02 07:57:37;;;;;;;0.30;0.20;;;;;;;16.51;35.69;102338.22;5063518;28;20119;-66
2023/06/02 08:00:17;;;;;;;0.45;0.20;;;;;;;16.21;35.37;102338.47;5075864;28;20133;-67
2023/06/02 08:02:43;;;;;;;0.25;0.20;;;;;;;16.50;35.83;102337.38;5096711;28;20138;-66
2023/06/02 08:05:10;;;;;;;0.65;0.13;;;;;;;16.65;36.33;102329.94;5083604;28;20020;-67
2023/06/02 08:07:35;;;;;;;1.55;0.30;;;;;;;16.29;36.40;102324.75;5101900;28;20057;-69
2023/06/02 08:10:01;;;;;;;1.75;0.43;;;;;;;16.39;35.37;102322.50;5066852;28;20126;-67
2023/06/02 08:12:27;;;;;;;0.60;0.30;;;;;;;16.55;35.68;102323.19;5076219;28;20047;-67
2023/06/02 08:14:53;;;;;;;0.45;0.20;;;;;;;16.84;35.18;102322.91;5063595;28;20025;-68
2023/06/02 08:17:18;;;;;;;0.82;0.20;;;;;;;16.70;35.55;102326.59;5077766;28;20024;-69
2023/06/02 08:19:43;;;;;;;0.30;0.20;;;;;;;16.63;36.02;102328.47;5084903;28;20040;-68
2023/06/02 08:22:09;;;;;;;0.20;0.10;;;;;;;16.51;36.17;102328.19;5065826;28;20032;-68
2023/06/02 08:24:36;;;;;;;1.17;0.20;;;;;;;16.55;36.24;102315.84;5087010;28;20039;-67
2023/06/02 08:27:03;;;;;;;0.70;0.20;;;;;;;16.74;36.07;102321.59;5058607;28;20040;-67
2023/06/02 08:29:30;;;;;;;0.60;0.17;;;;;;;16.84;36.51;102324.81;5075790;28;20028;-67
2023/06/02 08:31:56;;;;;;;0.55;0.28;;;;;;;16.45;35.82;102296.38;5058250;28;20105;-67
2023/06/02 08:34:23;;;;;;;1.02;0.30;;;;;;;17.00;34.84;102313.56;5041511;28;20479;-67
2023/06/02 08:36:56;;;;;;;0.17;0.10;;;;;;;16.86;34.90;102307.25;5058383;28;20048;-67
2023/06/02 08:39:21;;;;;;;0.70;0.20;;;;;;;17.14;35.50;102319.88;5059332;28;20020;-67
2023/06/02 08:41:50;;;;;;;0.63;0.20;;;;;;;17.08;35.45;102320.69;5058946;28;20527;-68
2023/06/02 08:44:16;;;;;;;0.30;0.10;;;;;;;16.83;34.76;102282.34;5075886;28;20020;-67
2023/06/02 08:46:45;;;;;;;0.52;0.15;;;;;;;16.86;35.25;102320.84;5057387;28;20048;-67
2023/06/02 08:49:15;;;;;;;0.28;0.10;;;;;;;16.88;34.73;102315.19;5042221;28;20052;-67
2023/06/02 08:51:43;;;;;;;0.30;0.10;;;;;;;17.12;34.68;102320.09;5059631;28;20088;-67
2023/06/02 08:54:11;;;;;;;0.50;0.20;;;;;;;17.22;34.65;102319.69;5077074;28;20423;-70
2023/06/02 08:56:37;;;;;;;0.35;0.20;;;;;;;17.06;34.42;102314.63;5068909;28;20020;-67
2023/06/02 08:59:02;;;;;;;1.55;0.20;;;;;;;17.41;34.13;102318.03;5078909;28;20057;-66
2023/06/02 09:01:28;;;;;;;0.52;0.20;;;;;;;17.42;33.64;102316.13;5056974;28;20445;-68
2023/06/02 09:03:54;;;;;;;0.52;0.20;;;;;;;17.44;34.13;102325.78;5056376;28;20029;-68
2023/06/02 09:06:22;;;;;;;0.28;0.10;;;;;;;17.44;34.87;102320.34;5059069;28;20021;-67
2023/06/02 09:08:58;;;;;;;0.30;0.10;;;;;;;17.31;34.52;102328.47;5095317;28;20019;-67
2023/06/02 09:11:25;;;;;;;0.35;0.20;;;;;;;17.22;34.21;102327.84;5062614;28;20035;-68
2023/06/02 09:13:52;;;;;;;0.30;0.10;;;;;;;17.42;33.12;102311.56;5101153;28;20028;-67
2023/06/02 09:16:20;;;;;;;0.95;0.20;;;;;;;17.72;34.95;102336.50;5075180;28;20359;-67
2023/06/02 09:18:59;;;;;;;0.50;0.22;;;;;;;17.52;35.70;102303.00;5059549;28;20054;-66
2023/06/02 09:21:32;;;;;;;0.50;0.10;;;;;;;17.74;35.31;102307.16;5078902;28;20069;-67
2023/06/02 09:24:00;;;;;;;0.43;0.10;;;;;;;17.40;35.95;102323.69;5082220;28;20054;-66
2023/06/02 09:26:28;;;;;;;0.52;0.13;;;;;;;17.16;36.40;102325.94;5085232;28;20044;-71
2023/06/02 09:29:06;;;;;;;0.60;0.20;;;;;;;17.43;35.56;102321.38;5082002;28;20058;-68
2023/06/02 09:31:49;;;;;;;0.95;0.20;;;;;;;17.58;32.55;102332.06;5083143;28;20032;-66
2023/06/02 09:34:16;;;;;;;0.70;0.25;;;;;;;17.52;32.48;102322.88;5059282;28;20086;-69
2023/06/02 09:36:43;;;;;;;0.50;0.20;;;;;;;17.61;32.56;102318.03;5061263;28;20487;-68
2023/06/02 09:39:10;;;;;;;0.63;0.20;;;;;;;17.70;33.32;102337.75;5097486;28;20032;-67
2023/06/02 09:41:40;;;;;;;0.85;0.20;;;;;;;17.28;32.26;102331.59;5063957;28;20498;-67
2023/06/02 09:44:16;;;;;;;0.50;0.20;;;;;;;17.30;31.03;102338.53;5057401;28;20100;-67
2023/06/02 09:46:44;;;;;;;1.08;0.30;;;;;;;17.52;31.18;102308.44;5074632;28;20096;-67
2023/06/02 09:49:11;;;;;;;0.10;0.10;;;;;;;17.86;31.34;102325.63;5062701;28;20020;-67
2023/06/02 09:51:38;;;;;;;0.65;0.20;;;;;;;18.01;30.81;102326.22;5078722;28;20039;-66
2023/06/02 09:54:05;;;;;;;1.55;0.30;;;;;;;18.06;30.09;102304.66;5076674;28;20032;-68
2023/06/02 09:56:34;;;;;;;0.73;0.20;;;;;;;17.97;31.15;102327.69;5096250;28;20083;-67
2023/06/02 09:59:00;;;;;;;0.45;0.20;;;;;;;17.86;31.66;102323.72;5077660;28;20018;-66
2023/06/02 10:01:26;;;;;;;0.40;0.20;;;;;;;17.58;31.67;102297.53;5078480;28;20130;-66
2023/06/02 10:03:51;;;;;;;0.65;0.30;;;;;;;17.71;31.91;102329.34;5059732;28;20024;-67
2023/06/02 10:06:40;;;;;;;0.88;0.20;;;;;;;17.71;31.33;102306.72;5081028;28;20078;-66
2023/06/02 10:09:16;;;;;;;0.63;0.20;;;;;;;17.94;32.93;102317.22;5096148;28;20098;-68
2023/06/02 10:12:19;;;;;;;1.38;0.20;;;;;;;18.14;31.65;102331.66;5093672;28;20027;-68
2023/06/02 10:15:14;;;;;;;1.05;0.20;;;;;;;18.16;30.27;102324.13;5078486;28;20032;-66
2023/06/02 10:18:19;;;;;;;0.90;0.20;;;;;;;18.55;30.01;102325.06;5062801;28;20024;-65
2023/06/02 10:21:02;;;;;;;1.23;0.30;;;;;;;18.44;30.34;102328.44;5101389;28;20063;-66
2023/06/02 10:23:37;;;;;;;0.68;0.20;;;;;;;18.43;30.20;102324.03;5100038;28;20028;-69
2023/06/02 10:27:05;;;;;;;0.45;0.20;;;;;;;18.32;32.51;102333.72;5083779;28;20028;-79
2023/06/02 10:29:33;;;;;;;1.35;0.40;;;;;;;18.36;32.98;102315.06;5007846;28;20037;-67
2023/06/02 10:32:00;;;;;;;4.53;0.40;;;;;;;18.45;33.13;102327.41;5078300;28;20083;-67
2023/06/02 10:34:34;;;;;;;2.33;1.15;;;;;;;18.34;31.92;102315.25;5060831;28;20020;-66
2023/06/02 10:37:00;;;;;;;;;;;;;;;18.49;32.50;102312.28;5061984;28;20380;-66
2023/06/02 10:39:35;;;;;;;1.25;0.30;;;;;;;18.48;32.70;102316.06;5079551;28;19935;-69
2023/06/02 10:42:08;;;;;;;2.92;0.40;;;;;;;18.40;31.82;102302.66;5076314;28;20099;-67
2023/06/02 10:44:34;;;;;;;1.05;0.20;;;;;;;18.47;31.54;102314.38;5077397;28;20085;-66
2023/06/02 10:47:17;;;;;;;0.40;0.25;;;;;;;18.25;31.91;102309.22;5080619;28;20028;-66
2023/06/02 10:49:55;;;;;;;1.20;0.30;;;;;;;17.56;32.20;102318.69;5079827;28;20020;-66
2023/06/02 10:52:32;;;;;;;0.10;0.10;;;;;;;17.64;33.30;102305.91;5080725;28;20025;-66
2023/06/02 10:55:06;;;;;;;1.10;0.22;;;;;;;18.00;32.89;102308.22;5080185;28;20028;-66
2023/06/02 10:57:50;;;;;;;0.38;0.25;;;;;;;17.83;30.57;102311.38;5080791;28;20040;-68
2023/06/02 11:00:39;;;;;;;0.38;0.28;;;;;;;18.18;30.39;102313.84;5063117;28;20029;-66
2023/06/02 11:03:27;;;;;;;0.40;0.10;;;;;;;17.76;35.10;102305.09;5072245;28;20057;-66
2023/06/02 11:06:17;;;;;;;0.43;0.20;;;;;;;17.25;38.33;102312.97;5060558;28;20016;-66
2023/06/02 11:08:44;;;;;;;0.30;0.20;;;;;;;16.94;40.37;102318.97;5078314;28;20032;-66
2023/06/02 11:11:10;;;;;;;0.80;0.20;;;;;;;16.71;38.99;102311.97;5041888;28;20024;-68
2023/06/02 11:13:59;;;;;;;1.17;0.50;;;;;;;16.89;39.92;102315.00;5081073;28;20036;-66
2023/06/02 11:16:27;;;;;;;3.20;0.20;;;;;;;16.62;42.00;102315.88;5053120;28;20495;-67
2023/06/02 11:18:53;;;;;;;1.08;0.20;;;;;;;16.49;40.78;102318.53;5061419;28;20033;-67
2023/06/02 11:21:21;;;;;;;1.38;0.20;;;;;;;16.58;41.16;102328.22;5079384;28;20604;-67
2023/06/02 11:23:47;;;;;;;0.40;0.10;;;;;;;16.66;40.17;102319.91;5079686;28;20032;-67
2023/06/02 11:26:19;;;;;;;1.38;0.20;;;;;;;16.40;41.77;102298.88;5061988;28;20021;-67
2023/06/02 11:28:45;;;;;;;0.40;0.30;;;;;;;16.63;41.34;102310.28;5045583;28;20025;-70
2023/06/02 11:31:12;;;;;;;0.98;0.20;;;;;;;16.85;40.10;102319.19;5059523;28;20036;-67